sensor_id;sensor_type;location;lat;lon;timestamp;P1;durP1;ratioP1;P2;durP2;ratioP2
64060;SDS011;60147;55.036;73.242;2024-03-02T00:01:35;7.32;;;4.55;;
64060;SDS011;60147;55.036;73.242;2024-03-02T00:04:03;5.93;;;3.35;;
64060;SDS011;60147;55.036;73.242;2024-03-02T00:06:29;5.57;;;3.22;;
64060;SDS011;60147;55.036;73.242;2024-03-02T00:08:56;7.95;;;3.55;;
64060;SDS011;60147;55.036;73.242;2024-03-02T00:11:23;7.60;;;3.65;;
64060;SDS011;60147;55.036;73.242;2024-03-02T00:13:52;7.93;;;3.90;;
64060;SDS011;60147;55.036;73.242;2024-03-02T00:16:18;10.63;;;4.55;;
64060;SDS011;60147;55.036;73.242;2024-03-02T00:18:44;15.52;;;5.00;;
64060;SDS011;60147;55.036;73.242;2024-03-02T00:21:10;18.63;;;7.65;;
64060;SDS011;60147;55.036;73.242;2024-03-02T00:23:36;14.45;;;6.95;;
64060;SDS011;60147;55.036;73.242;2024-03-02T00:26:02;13.70;;;6.45;;
64060;SDS011;60147;55.036;73.242;2024-03-02T00:30:56;10.90;;;3.92;;
64060;SDS011;60147;55.036;73.242;2024-03-02T00:33:41;13.17;;;3.80;;
64060;SDS011;60147;55.036;73.242;2024-03-02T00:36:08;13.85;;;3.78;;
64060;SDS011;60147;55.036;73.242;2024-03-02T00:38:43;10.43;;;4.03;;
64060;SDS011;60147;55.036;73.242;2024-03-02T00:41:15;12.43;;;3.65;;
64060;SDS011;60147;55.036;73.242;2024-03-02T00:46:19;11.48;;;4.00;;
64060;SDS011;60147;55.036;73.242;2024-03-02T00:48:55;9.65;;;3.33;;
64060;SDS011;60147;55.036;73.242;2024-03-02T00:51:22;22.90;;;4.60;;
64060;SDS011;60147;55.036;73.242;2024-03-02T00:53:49;30.20;;;5.55;;
64060;SDS011;60147;55.036;73.242;2024-03-02T00:56:16;16.80;;;3.90;;
64060;SDS011;60147;55.036;73.242;2024-03-02T00:58:42;13.40;;;3.75;;
64060;SDS011;60147;55.036;73.242;2024-03-02T01:01:08;11.02;;;3.67;;
64060;SDS011;60147;55.036;73.242;2024-03-02T01:03:35;16.65;;;5.90;;
64060;SDS011;60147;55.036;73.242;2024-03-02T01:06:01;13.38;;;5.95;;
64060;SDS011;60147;55.036;73.242;2024-03-02T01:08:27;19.10;;;7.45;;
64060;SDS011;60147;55.036;73.242;2024-03-02T01:10:53;21.75;;;8.18;;
64060;SDS011;60147;55.036;73.242;2024-03-02T01:13:21;17.77;;;7.63;;
64060;SDS011;60147;55.036;73.242;2024-03-02T01:15:47;9.98;;;5.05;;
64060;SDS011;60147;55.036;73.242;2024-03-02T01:18:13;15.93;;;6.07;;
64060;SDS011;60147;55.036;73.242;2024-03-02T01:20:40;17.73;;;8.60;;
64060;SDS011;60147;55.036;73.242;2024-03-02T01:23:06;12.73;;;7.03;;
64060;SDS011;60147;55.036;73.242;2024-03-02T01:25:32;16.17;;;8.93;;
64060;SDS011;60147;55.036;73.242;2024-03-02T01:27:58;20.90;;;10.35;;
64060;SDS011;60147;55.036;73.242;2024-03-02T01:30:24;15.48;;;8.20;;
64060;SDS011;60147;55.036;73.242;2024-03-02T01:32:50;25.75;;;10.93;;
64060;SDS011;60147;55.036;73.242;2024-03-02T01:35:16;41.15;;;20.40;;
64060;SDS011;60147;55.036;73.242;2024-03-02T01:37:42;36.05;;;15.27;;
64060;SDS011;60147;55.036;73.242;2024-03-02T01:40:08;25.23;;;11.77;;
64060;SDS011;60147;55.036;73.242;2024-03-02T01:42:38;25.83;;;11.10;;
64060;SDS011;60147;55.036;73.242;2024-03-02T01:45:07;24.13;;;11.15;;
64060;SDS011;60147;55.036;73.242;2024-03-02T01:47:52;20.70;;;11.57;;
64060;SDS011;60147;55.036;73.242;2024-03-02T01:50:25;28.13;;;13.73;;
64060;SDS011;60147;55.036;73.242;2024-03-02T01:52:51;30.83;;;16.35;;
64060;SDS011;60147;55.036;73.242;2024-03-02T01:55:17;22.13;;;11.18;;
64060;SDS011;60147;55.036;73.242;2024-03-02T01:57:43;30.05;;;13.85;;
64060;SDS011;60147;55.036;73.242;2024-03-02T02:00:10;35.63;;;16.70;;
64060;SDS011;60147;55.036;73.242;2024-03-02T02:02:40;40.95;;;17.92;;
64060;SDS011;60147;55.036;73.242;2024-03-02T02:05:07;26.20;;;13.05;;
64060;SDS011;60147;55.036;73.242;2024-03-02T02:07:33;33.67;;;17.00;;
64060;SDS011;60147;55.036;73.242;2024-03-02T02:10:00;31.02;;;17.00;;
64060;SDS011;60147;55.036;73.242;2024-03-02T02:12:26;21.30;;;11.38;;
64060;SDS011;60147;55.036;73.242;2024-03-02T02:14:53;30.27;;;16.88;;
64060;SDS011;60147;55.036;73.242;2024-03-02T02:17:19;36.55;;;18.23;;
64060;SDS011;60147;55.036;73.242;2024-03-02T02:19:45;37.22;;;19.30;;
64060;SDS011;60147;55.036;73.242;2024-03-02T02:22:12;36.13;;;17.38;;
64060;SDS011;60147;55.036;73.242;2024-03-02T02:24:41;26.60;;;13.25;;
64060;SDS011;60147;55.036;73.242;2024-03-02T02:27:08;30.60;;;14.82;;
64060;SDS011;60147;55.036;73.242;2024-03-02T02:29:34;32.90;;;17.77;;
64060;SDS011;60147;55.036;73.242;2024-03-02T02:32:00;31.52;;;14.75;;
64060;SDS011;60147;55.036;73.242;2024-03-02T02:34:35;13.60;;;7.18;;
64060;SDS011;60147;55.036;73.242;2024-03-02T02:37:01;14.88;;;7.78;;
64060;SDS011;60147;55.036;73.242;2024-03-02T02:39:27;22.67;;;11.63;;
64060;SDS011;60147;55.036;73.242;2024-03-02T02:41:53;17.50;;;9.65;;
64060;SDS011;60147;55.036;73.242;2024-03-02T02:44:20;19.55;;;10.90;;
64060;SDS011;60147;55.036;73.242;2024-03-02T02:46:46;22.13;;;10.02;;
64060;SDS011;60147;55.036;73.242;2024-03-02T02:49:12;13.07;;;7.15;;
64060;SDS011;60147;55.036;73.242;2024-03-02T02:51:38;25.35;;;12.23;;
64060;SDS011;60147;55.036;73.242;2024-03-02T02:54:04;16.95;;;6.68;;
64060;SDS011;60147;55.036;73.242;2024-03-02T02:56:30;18.25;;;8.68;;
64060;SDS011;60147;55.036;73.242;2024-03-02T02:58:56;30.77;;;9.70;;
64060;SDS011;60147;55.036;73.242;2024-03-02T03:01:22;29.48;;;12.57;;
64060;SDS011;60147;55.036;73.242;2024-03-02T03:03:48;28.30;;;11.75;;
64060;SDS011;60147;55.036;73.242;2024-03-02T03:06:14;22.38;;;10.98;;
64060;SDS011;60147;55.036;73.242;2024-03-02T03:08:40;14.30;;;6.80;;
64060;SDS011;60147;55.036;73.242;2024-03-02T03:11:06;20.42;;;11.52;;
64060;SDS011;60147;55.036;73.242;2024-03-02T03:13:33;28.70;;;15.80;;
64060;SDS011;60147;55.036;73.242;2024-03-02T03:15:59;40.22;;;19.95;;
64060;SDS011;60147;55.036;73.242;2024-03-02T03:18:26;40.83;;;20.88;;
64060;SDS011;60147;55.036;73.242;2024-03-02T03:20:52;42.08;;;21.73;;
64060;SDS011;60147;55.036;73.242;2024-03-02T03:23:18;38.22;;;21.27;;
64060;SDS011;60147;55.036;73.242;2024-03-02T03:25:44;39.40;;;21.80;;
64060;SDS011;60147;55.036;73.242;2024-03-02T03:28:10;34.72;;;19.08;;
64060;SDS011;60147;55.036;73.242;2024-03-02T03:30:39;33.10;;;16.35;;
64060;SDS011;60147;55.036;73.242;2024-03-02T03:33:05;20.85;;;11.73;;
64060;SDS011;60147;55.036;73.242;2024-03-02T03:35:32;41.00;;;20.02;;
64060;SDS011;60147;55.036;73.242;2024-03-02T03:37:58;43.05;;;23.67;;
64060;SDS011;60147;55.036;73.242;2024-03-02T03:40:24;32.40;;;18.58;;
64060;SDS011;60147;55.036;73.242;2024-03-02T03:42:50;39.97;;;19.50;;
64060;SDS011;60147;55.036;73.242;2024-03-02T03:45:16;39.78;;;20.83;;
64060;SDS011;60147;55.036;73.242;2024-03-02T03:48:01;45.25;;;23.90;;
64060;SDS011;60147;55.036;73.242;2024-03-02T03:50:28;42.55;;;21.42;;
64060;SDS011;60147;55.036;73.242;2024-03-02T03:52:54;43.85;;;21.75;;
64060;SDS011;60147;55.036;73.242;2024-03-02T03:55:19;43.38;;;25.85;;
64060;SDS011;60147;55.036;73.242;2024-03-02T03:57:46;35.38;;;18.17;;
64060;SDS011;60147;55.036;73.242;2024-03-02T04:00:12;27.67;;;14.38;;
64060;SDS011;60147;55.036;73.242;2024-03-02T04:02:38;25.10;;;13.75;;
64060;SDS011;60147;55.036;73.242;2024-03-02T04:05:04;27.48;;;16.27;;
64060;SDS011;60147;55.036;73.242;2024-03-02T04:07:37;26.98;;;13.82;;
64060;SDS011;60147;55.036;73.242;2024-03-02T04:10:07;21.63;;;12.43;;
64060;SDS011;60147;55.036;73.242;2024-03-02T04:12:34;27.60;;;13.85;;
64060;SDS011;60147;55.036;73.242;2024-03-02T04:15:01;14.80;;;7.63;;
64060;SDS011;60147;55.036;73.242;2024-03-02T04:17:27;14.40;;;8.63;;
64060;SDS011;60147;55.036;73.242;2024-03-02T04:19:53;16.92;;;8.65;;
64060;SDS011;60147;55.036;73.242;2024-03-02T04:22:19;7.75;;;3.78;;
64060;SDS011;60147;55.036;73.242;2024-03-02T04:24:45;7.43;;;4.15;;
64060;SDS011;60147;55.036;73.242;2024-03-02T04:27:11;17.25;;;9.60;;
64060;SDS011;60147;55.036;73.242;2024-03-02T04:29:37;15.25;;;7.95;;
64060;SDS011;60147;55.036;73.242;2024-03-02T04:32:03;15.32;;;8.35;;
64060;SDS011;60147;55.036;73.242;2024-03-02T04:34:31;6.72;;;4.00;;
64060;SDS011;60147;55.036;73.242;2024-03-02T04:36:57;7.55;;;4.25;;
64060;SDS011;60147;55.036;73.242;2024-03-02T04:39:23;4.93;;;3.03;;
64060;SDS011;60147;55.036;73.242;2024-03-02T04:41:50;10.45;;;6.00;;
64060;SDS011;60147;55.036;73.242;2024-03-02T04:44:16;9.95;;;5.72;;
64060;SDS011;60147;55.036;73.242;2024-03-02T04:46:43;4.60;;;2.53;;
64060;SDS011;60147;55.036;73.242;2024-03-02T04:49:09;4.35;;;2.92;;
64060;SDS011;60147;55.036;73.242;2024-03-02T04:51:35;6.05;;;3.22;;
64060;SDS011;60147;55.036;73.242;2024-03-02T04:54:01;22.10;;;12.90;;
64060;SDS011;60147;55.036;73.242;2024-03-02T04:56:27;18.00;;;10.80;;
64060;SDS011;60147;55.036;73.242;2024-03-02T04:59:18;20.75;;;11.80;;
64060;SDS011;60147;55.036;73.242;2024-03-02T05:01:45;9.20;;;5.45;;
64060;SDS011;60147;55.036;73.242;2024-03-02T05:04:11;5.97;;;3.05;;
64060;SDS011;60147;55.036;73.242;2024-03-02T05:06:37;7.60;;;4.05;;
64060;SDS011;60147;55.036;73.242;2024-03-02T05:09:04;14.70;;;6.65;;
64060;SDS011;60147;55.036;73.242;2024-03-02T05:14:41;14.00;;;7.43;;
64060;SDS011;60147;55.036;73.242;2024-03-02T05:17:08;16.23;;;8.75;;
64060;SDS011;60147;55.036;73.242;2024-03-02T05:19:37;7.30;;;3.55;;
64060;SDS011;60147;55.036;73.242;2024-03-02T05:22:03;15.60;;;6.55;;
64060;SDS011;60147;55.036;73.242;2024-03-02T05:28:33;23.65;;;7.25;;
64060;SDS011;60147;55.036;73.242;2024-03-02T05:30:59;17.85;;;5.15;;
64060;SDS011;60147;55.036;73.242;2024-03-02T05:33:25;20.10;;;6.63;;
64060;SDS011;60147;55.036;73.242;2024-03-02T05:36:02;13.00;;;5.65;;
64060;SDS011;60147;55.036;73.242;2024-03-02T05:38:29;23.90;;;11.40;;
64060;SDS011;60147;55.036;73.242;2024-03-02T05:40:55;44.22;;;22.60;;
64060;SDS011;60147;55.036;73.242;2024-03-02T05:43:21;36.35;;;16.90;;
64060;SDS011;60147;55.036;73.242;2024-03-02T05:45:47;21.13;;;8.75;;
64060;SDS011;60147;55.036;73.242;2024-03-02T05:48:13;10.07;;;3.83;;
64060;SDS011;60147;55.036;73.242;2024-03-02T05:50:39;7.53;;;3.40;;
64060;SDS011;60147;55.036;73.242;2024-03-02T05:53:05;13.75;;;3.13;;
64060;SDS011;60147;55.036;73.242;2024-03-02T05:55:31;21.00;;;4.90;;
64060;SDS011;60147;55.036;73.242;2024-03-02T05:57:57;14.63;;;3.22;;
64060;SDS011;60147;55.036;73.242;2024-03-02T06:00:29;7.35;;;3.45;;
64060;SDS011;60147;55.036;73.242;2024-03-02T06:02:56;7.30;;;3.17;;
64060;SDS011;60147;55.036;73.242;2024-03-02T06:05:22;61.72;;;19.00;;
64060;SDS011;60147;55.036;73.242;2024-03-02T06:07:48;8.45;;;4.50;;
64060;SDS011;60147;55.036;73.242;2024-03-02T06:10:14;5.50;;;2.78;;
64060;SDS011;60147;55.036;73.242;2024-03-02T06:12:40;9.10;;;4.60;;
64060;SDS011;60147;55.036;73.242;2024-03-02T06:15:06;15.43;;;6.68;;
64060;SDS011;60147;55.036;73.242;2024-03-02T06:17:34;11.85;;;5.15;;
64060;SDS011;60147;55.036;73.242;2024-03-02T06:20:00;5.88;;;3.15;;
64060;SDS011;60147;55.036;73.242;2024-03-02T06:22:26;6.15;;;3.58;;
64060;SDS011;60147;55.036;73.242;2024-03-02T06:24:52;17.60;;;5.20;;
64060;SDS011;60147;55.036;73.242;2024-03-02T06:27:18;22.92;;;6.47;;
64060;SDS011;60147;55.036;73.242;2024-03-02T06:29:45;23.52;;;6.18;;
64060;SDS011;60147;55.036;73.242;2024-03-02T06:32:11;18.10;;;7.13;;
64060;SDS011;60147;55.036;73.242;2024-03-02T06:34:39;28.95;;;7.32;;
64060;SDS011;60147;55.036;73.242;2024-03-02T06:37:05;22.17;;;5.35;;
64060;SDS011;60147;55.036;73.242;2024-03-02T06:39:31;19.77;;;6.40;;
64060;SDS011;60147;55.036;73.242;2024-03-02T06:42:00;24.25;;;7.78;;
64060;SDS011;60147;55.036;73.242;2024-03-02T06:44:26;15.93;;;5.80;;
64060;SDS011;60147;55.036;73.242;2024-03-02T06:46:52;10.57;;;4.38;;
64060;SDS011;60147;55.036;73.242;2024-03-02T06:49:18;14.88;;;6.15;;
64060;SDS011;60147;55.036;73.242;2024-03-02T06:51:44;17.40;;;6.75;;
64060;SDS011;60147;55.036;73.242;2024-03-02T06:54:10;13.52;;;5.72;;
64060;SDS011;60147;55.036;73.242;2024-03-02T06:56:36;14.48;;;6.38;;
64060;SDS011;60147;55.036;73.242;2024-03-02T06:59:04;18.08;;;6.55;;
64060;SDS011;60147;55.036;73.242;2024-03-02T07:01:30;12.98;;;6.13;;
64060;SDS011;60147;55.036;73.242;2024-03-02T07:03:56;14.98;;;6.18;;
64060;SDS011;60147;55.036;73.242;2024-03-02T07:06:22;15.57;;;5.90;;
64060;SDS011;60147;55.036;73.242;2024-03-02T07:08:48;14.98;;;6.03;;
64060;SDS011;60147;55.036;73.242;2024-03-02T07:11:14;13.48;;;5.85;;
64060;SDS011;60147;55.036;73.242;2024-03-02T07:13:40;10.13;;;5.18;;
64060;SDS011;60147;55.036;73.242;2024-03-02T07:16:06;13.15;;;6.15;;
64060;SDS011;60147;55.036;73.242;2024-03-02T07:18:52;10.98;;;5.03;;
64060;SDS011;60147;55.036;73.242;2024-03-02T07:21:18;20.98;;;8.40;;
64060;SDS011;60147;55.036;73.242;2024-03-02T07:23:44;17.65;;;6.85;;
64060;SDS011;60147;55.036;73.242;2024-03-02T07:26:10;15.18;;;6.47;;
64060;SDS011;60147;55.036;73.242;2024-03-02T07:28:36;8.10;;;4.30;;
64060;SDS011;60147;55.036;73.242;2024-03-02T07:31:03;9.10;;;4.15;;
64060;SDS011;60147;55.036;73.242;2024-03-02T07:33:30;12.50;;;6.38;;
64060;SDS011;60147;55.036;73.242;2024-03-02T07:35:56;11.27;;;6.03;;
64060;SDS011;60147;55.036;73.242;2024-03-02T07:38:23;10.07;;;4.97;;
64060;SDS011;60147;55.036;73.242;2024-03-02T07:40:49;13.10;;;5.53;;
64060;SDS011;60147;55.036;73.242;2024-03-02T07:43:19;10.52;;;4.63;;
64060;SDS011;60147;55.036;73.242;2024-03-02T07:45:45;9.57;;;5.00;;
64060;SDS011;60147;55.036;73.242;2024-03-02T07:48:11;27.13;;;8.45;;
64060;SDS011;60147;55.036;73.242;2024-03-02T07:50:37;16.02;;;5.65;;
64060;SDS011;60147;55.036;73.242;2024-03-02T07:53:04;16.15;;;6.78;;
64060;SDS011;60147;55.036;73.242;2024-03-02T07:55:31;10.23;;;5.40;;
64060;SDS011;60147;55.036;73.242;2024-03-02T07:57:57;23.52;;;6.95;;
64060;SDS011;60147;55.036;73.242;2024-03-02T08:00:28;23.60;;;8.00;;
64060;SDS011;60147;55.036;73.242;2024-03-02T08:02:54;20.73;;;7.47;;
64060;SDS011;60147;55.036;73.242;2024-03-02T08:05:21;10.45;;;6.07;;
64060;SDS011;60147;55.036;73.242;2024-03-02T08:07:47;14.48;;;5.35;;
64060;SDS011;60147;55.036;73.242;2024-03-02T08:10:13;13.15;;;6.22;;
64060;SDS011;60147;55.036;73.242;2024-03-02T08:12:39;25.55;;;11.73;;
64060;SDS011;60147;55.036;73.242;2024-03-02T08:15:05;11.38;;;5.43;;
64060;SDS011;60147;55.036;73.242;2024-03-02T08:17:32;9.63;;;5.32;;
64060;SDS011;60147;55.036;73.242;2024-03-02T08:19:58;13.55;;;6.28;;
64060;SDS011;60147;55.036;73.242;2024-03-02T08:22:24;13.27;;;4.90;;
64060;SDS011;60147;55.036;73.242;2024-03-02T08:24:53;17.85;;;5.35;;
64060;SDS011;60147;55.036;73.242;2024-03-02T08:27:19;12.45;;;4.25;;
64060;SDS011;60147;55.036;73.242;2024-03-02T08:29:45;10.38;;;4.30;;
64060;SDS011;60147;55.036;73.242;2024-03-02T08:32:11;6.35;;;3.45;;
64060;SDS011;60147;55.036;73.242;2024-03-02T08:34:57;10.68;;;4.40;;
64060;SDS011;60147;55.036;73.242;2024-03-02T08:37:23;12.40;;;4.72;;
64060;SDS011;60147;55.036;73.242;2024-03-02T08:39:53;13.48;;;4.72;;
64060;SDS011;60147;55.036;73.242;2024-03-02T08:42:19;11.63;;;5.72;;
64060;SDS011;60147;55.036;73.242;2024-03-02T08:44:46;13.65;;;5.80;;
64060;SDS011;60147;55.036;73.242;2024-03-02T08:47:12;9.30;;;4.75;;
64060;SDS011;60147;55.036;73.242;2024-03-02T08:49:39;13.77;;;7.35;;
64060;SDS011;60147;55.036;73.242;2024-03-02T08:52:05;39.28;;;15.48;;
64060;SDS011;60147;55.036;73.242;2024-03-02T08:54:31;24.98;;;11.30;;
64060;SDS011;60147;55.036;73.242;2024-03-02T08:56:59;74.28;;;29.23;;
64060;SDS011;60147;55.036;73.242;2024-03-02T08:59:25;5.53;;;3.42;;
64060;SDS011;60147;55.036;73.242;2024-03-02T09:01:53;12.40;;;5.90;;
64060;SDS011;60147;55.036;73.242;2024-03-02T09:04:19;14.63;;;6.57;;
64060;SDS011;60147;55.036;73.242;2024-03-02T09:06:45;8.13;;;4.53;;
64060;SDS011;60147;55.036;73.242;2024-03-02T09:09:11;14.40;;;6.18;;
64060;SDS011;60147;55.036;73.242;2024-03-02T09:11:37;9.65;;;4.25;;
64060;SDS011;60147;55.036;73.242;2024-03-02T09:14:03;6.13;;;3.45;;
64060;SDS011;60147;55.036;73.242;2024-03-02T09:16:30;9.82;;;4.82;;
64060;SDS011;60147;55.036;73.242;2024-03-02T09:18:57;7.60;;;3.42;;
64060;SDS011;60147;55.036;73.242;2024-03-02T09:21:23;7.32;;;2.80;;
64060;SDS011;60147;55.036;73.242;2024-03-02T09:23:49;6.65;;;4.05;;
64060;SDS011;60147;55.036;73.242;2024-03-02T09:26:15;8.93;;;4.97;;
64060;SDS011;60147;55.036;73.242;2024-03-02T09:28:43;10.20;;;4.53;;
64060;SDS011;60147;55.036;73.242;2024-03-02T09:31:10;12.65;;;4.82;;
64060;SDS011;60147;55.036;73.242;2024-03-02T09:33:36;13.20;;;4.38;;
64060;SDS011;60147;55.036;73.242;2024-03-02T09:36:02;11.73;;;3.95;;
64060;SDS011;60147;55.036;73.242;2024-03-02T09:38:28;13.27;;;3.47;;
64060;SDS011;60147;55.036;73.242;2024-03-02T09:40:54;12.02;;;4.32;;
64060;SDS011;60147;55.036;73.242;2024-03-02T09:43:20;8.68;;;3.70;;
64060;SDS011;60147;55.036;73.242;2024-03-02T09:45:46;5.32;;;2.80;;
64060;SDS011;60147;55.036;73.242;2024-03-02T09:48:12;8.82;;;2.97;;
64060;SDS011;60147;55.036;73.242;2024-03-02T09:50:38;9.10;;;3.60;;
64060;SDS011;60147;55.036;73.242;2024-03-02T09:53:04;6.13;;;3.40;;
64060;SDS011;60147;55.036;73.242;2024-03-02T09:55:31;8.15;;;4.07;;
64060;SDS011;60147;55.036;73.242;2024-03-02T09:57:57;7.10;;;3.85;;
64060;SDS011;60147;55.036;73.242;2024-03-02T10:00:23;5.50;;;3.35;;
64060;SDS011;60147;55.036;73.242;2024-03-02T10:02:50;7.82;;;4.57;;
64060;SDS011;60147;55.036;73.242;2024-03-02T10:05:26;11.95;;;6.25;;
64060;SDS011;60147;55.036;73.242;2024-03-02T10:07:59;14.38;;;9.05;;
64060;SDS011;60147;55.036;73.242;2024-03-02T10:13:03;10.10;;;5.43;;
64060;SDS011;60147;55.036;73.242;2024-03-02T10:15:29;7.97;;;4.78;;
64060;SDS011;60147;55.036;73.242;2024-03-02T10:17:55;8.23;;;3.92;;
64060;SDS011;60147;55.036;73.242;2024-03-02T10:20:25;6.72;;;4.22;;
64060;SDS011;60147;55.036;73.242;2024-03-02T10:22:51;8.43;;;4.25;;
64060;SDS011;60147;55.036;73.242;2024-03-02T10:25:33;7.25;;;3.65;;
64060;SDS011;60147;55.036;73.242;2024-03-02T10:28:00;32.78;;;17.85;;
64060;SDS011;60147;55.036;73.242;2024-03-02T10:30:27;20.95;;;17.13;;
64060;SDS011;60147;55.036;73.242;2024-03-02T10:32:56;20.60;;;10.05;;
64060;SDS011;60147;55.036;73.242;2024-03-02T10:35:22;23.95;;;11.90;;
64060;SDS011;60147;55.036;73.242;2024-03-02T10:37:49;20.30;;;9.38;;
64060;SDS011;60147;55.036;73.242;2024-03-02T10:40:15;17.58;;;5.60;;
64060;SDS011;60147;55.036;73.242;2024-03-02T10:42:42;16.70;;;7.35;;
64060;SDS011;60147;55.036;73.242;2024-03-02T10:45:10;11.27;;;4.50;;
64060;SDS011;60147;55.036;73.242;2024-03-02T10:47:38;13.80;;;4.60;;
64060;SDS011;60147;55.036;73.242;2024-03-02T10:50:23;20.95;;;7.47;;
64060;SDS011;60147;55.036;73.242;2024-03-02T10:52:50;19.30;;;9.63;;
64060;SDS011;60147;55.036;73.242;2024-03-02T10:55:16;18.00;;;10.13;;
64060;SDS011;60147;55.036;73.242;2024-03-02T10:57:50;30.10;;;15.75;;
64060;SDS011;60147;55.036;73.242;2024-03-02T11:00:17;24.38;;;15.25;;
64060;SDS011;60147;55.036;73.242;2024-03-02T11:02:56;12.70;;;9.55;;
64060;SDS011;60147;55.036;73.242;2024-03-02T11:05:28;9.48;;;7.63;;
64060;SDS011;60147;55.036;73.242;2024-03-02T11:08:02;11.25;;;7.80;;
64060;SDS011;60147;55.036;73.242;2024-03-02T11:10:35;14.00;;;6.47;;
64060;SDS011;60147;55.036;73.242;2024-03-02T11:13:04;8.65;;;5.65;;
64060;SDS011;60147;55.036;73.242;2024-03-02T11:15:31;11.07;;;3.30;;
64060;SDS011;60147;55.036;73.242;2024-03-02T11:18:00;6.05;;;3.03;;
64060;SDS011;60147;55.036;73.242;2024-03-02T11:20:40;9.88;;;4.40;;
64060;SDS011;60147;55.036;73.242;2024-03-02T11:23:08;6.45;;;2.65;;
64060;SDS011;60147;55.036;73.242;2024-03-02T11:25:34;6.03;;;2.60;;
64060;SDS011;60147;55.036;73.242;2024-03-02T11:28:03;8.88;;;3.40;;
64060;SDS011;60147;55.036;73.242;2024-03-02T11:33:08;16.10;;;6.57;;
64060;SDS011;60147;55.036;73.242;2024-03-02T11:35:40;23.02;;;8.35;;
64060;SDS011;60147;55.036;73.242;2024-03-02T11:38:09;16.67;;;4.60;;
64060;SDS011;60147;55.036;73.242;2024-03-02T11:40:35;14.45;;;3.83;;
64060;SDS011;60147;55.036;73.242;2024-03-02T11:43:01;8.13;;;3.45;;
64060;SDS011;60147;55.036;73.242;2024-03-02T11:45:28;6.53;;;2.50;;
64060;SDS011;60147;55.036;73.242;2024-03-02T11:47:59;5.50;;;2.75;;
64060;SDS011;60147;55.036;73.242;2024-03-02T11:52:55;5.65;;;3.67;;
64060;SDS011;60147;55.036;73.242;2024-03-02T11:55:21;6.57;;;3.15;;
64060;SDS011;60147;55.036;73.242;2024-03-02T11:57:48;10.13;;;3.72;;
64060;SDS011;60147;55.036;73.242;2024-03-02T12:00:18;4.60;;;2.47;;
64060;SDS011;60147;55.036;73.242;2024-03-02T12:02:46;12.07;;;4.50;;
64060;SDS011;60147;55.036;73.242;2024-03-02T12:05:15;6.18;;;3.78;;
64060;SDS011;60147;55.036;73.242;2024-03-02T12:07:42;19.70;;;4.78;;
64060;SDS011;60147;55.036;73.242;2024-03-02T12:10:08;27.15;;;7.97;;
64060;SDS011;60147;55.036;73.242;2024-03-02T12:12:35;12.88;;;3.95;;
64060;SDS011;60147;55.036;73.242;2024-03-02T12:15:01;15.63;;;3.75;;
64060;SDS011;60147;55.036;73.242;2024-03-02T12:17:44;10.20;;;3.17;;
64060;SDS011;60147;55.036;73.242;2024-03-02T12:20:31;15.82;;;4.00;;
64060;SDS011;60147;55.036;73.242;2024-03-02T12:23:02;18.73;;;3.88;;
64060;SDS011;60147;55.036;73.242;2024-03-02T12:25:43;11.93;;;3.38;;
64060;SDS011;60147;55.036;73.242;2024-03-02T12:28:09;12.00;;;2.70;;
64060;SDS011;60147;55.036;73.242;2024-03-02T12:30:44;13.10;;;3.78;;
64060;SDS011;60147;55.036;73.242;2024-03-02T12:33:11;9.73;;;3.97;;
64060;SDS011;60147;55.036;73.242;2024-03-02T12:35:37;9.15;;;3.28;;
64060;SDS011;60147;55.036;73.242;2024-03-02T12:38:03;6.80;;;3.40;;
64060;SDS011;60147;55.036;73.242;2024-03-02T12:40:30;8.48;;;3.25;;
64060;SDS011;60147;55.036;73.242;2024-03-02T12:42:56;13.68;;;4.82;;
64060;SDS011;60147;55.036;73.242;2024-03-02T12:45:22;28.45;;;4.65;;
64060;SDS011;60147;55.036;73.242;2024-03-02T12:47:52;31.38;;;6.70;;
64060;SDS011;60147;55.036;73.242;2024-03-02T12:50:18;9.07;;;2.72;;
64060;SDS011;60147;55.036;73.242;2024-03-02T12:52:50;12.85;;;3.42;;
64060;SDS011;60147;55.036;73.242;2024-03-02T12:55:16;13.52;;;3.50;;
64060;SDS011;60147;55.036;73.242;2024-03-02T12:57:43;8.43;;;3.17;;
64060;SDS011;60147;55.036;73.242;2024-03-02T13:00:09;10.80;;;3.90;;
64060;SDS011;60147;55.036;73.242;2024-03-02T13:02:39;8.52;;;2.72;;
64060;SDS011;60147;55.036;73.242;2024-03-02T13:05:05;8.23;;;3.20;;
64060;SDS011;60147;55.036;73.242;2024-03-02T13:07:32;9.63;;;4.50;;
64060;SDS011;60147;55.036;73.242;2024-03-02T13:10:12;11.20;;;5.90;;
64060;SDS011;60147;55.036;73.242;2024-03-02T13:12:38;19.65;;;8.40;;
64060;SDS011;60147;55.036;73.242;2024-03-02T13:15:38;15.45;;;6.93;;
64060;SDS011;60147;55.036;73.242;2024-03-02T13:18:04;12.48;;;5.68;;
64060;SDS011;60147;55.036;73.242;2024-03-02T13:20:30;13.82;;;4.10;;
64060;SDS011;60147;55.036;73.242;2024-03-02T13:22:57;10.40;;;4.10;;
64060;SDS011;60147;55.036;73.242;2024-03-02T13:25:23;9.60;;;5.07;;
64060;SDS011;60147;55.036;73.242;2024-03-02T13:27:49;9.02;;;4.43;;
64060;SDS011;60147;55.036;73.242;2024-03-02T13:30:15;11.85;;;5.03;;
64060;SDS011;60147;55.036;73.242;2024-03-02T13:32:56;8.70;;;5.20;;
64060;SDS011;60147;55.036;73.242;2024-03-02T13:35:23;18.45;;;5.32;;
64060;SDS011;60147;55.036;73.242;2024-03-02T13:37:49;15.27;;;4.38;;
64060;SDS011;60147;55.036;73.242;2024-03-02T13:40:28;20.13;;;5.15;;
64060;SDS011;60147;55.036;73.242;2024-03-02T13:42:57;23.55;;;5.03;;
64060;SDS011;60147;55.036;73.242;2024-03-02T13:45:23;13.68;;;4.60;;
64060;SDS011;60147;55.036;73.242;2024-03-02T13:48:08;22.77;;;5.10;;
64060;SDS011;60147;55.036;73.242;2024-03-02T13:50:52;19.70;;;5.72;;
64060;SDS011;60147;55.036;73.242;2024-03-02T13:53:19;24.23;;;7.30;;
64060;SDS011;60147;55.036;73.242;2024-03-02T13:55:45;15.15;;;5.47;;
64060;SDS011;60147;55.036;73.242;2024-03-02T13:58:11;24.33;;;6.70;;
64060;SDS011;60147;55.036;73.242;2024-03-02T14:00:37;25.40;;;6.55;;
64060;SDS011;60147;55.036;73.242;2024-03-02T14:03:04;21.38;;;5.57;;
64060;SDS011;60147;55.036;73.242;2024-03-02T14:05:30;16.40;;;4.82;;
64060;SDS011;60147;55.036;73.242;2024-03-02T14:07:56;18.90;;;4.95;;
64060;SDS011;60147;55.036;73.242;2024-03-02T14:10:22;20.52;;;4.78;;
64060;SDS011;60147;55.036;73.242;2024-03-02T14:12:49;15.10;;;4.10;;
64060;SDS011;60147;55.036;73.242;2024-03-02T14:15:15;16.65;;;4.25;;
64060;SDS011;60147;55.036;73.242;2024-03-02T14:17:41;16.90;;;4.40;;
64060;SDS011;60147;55.036;73.242;2024-03-02T14:20:07;18.48;;;4.75;;
64060;SDS011;60147;55.036;73.242;2024-03-02T14:22:36;17.13;;;4.43;;
64060;SDS011;60147;55.036;73.242;2024-03-02T14:25:03;22.83;;;4.50;;
64060;SDS011;60147;55.036;73.242;2024-03-02T14:27:29;15.70;;;4.07;;
64060;SDS011;60147;55.036;73.242;2024-03-02T14:29:55;18.75;;;4.68;;
64060;SDS011;60147;55.036;73.242;2024-03-02T14:32:21;13.88;;;4.00;;
64060;SDS011;60147;55.036;73.242;2024-03-02T14:34:47;18.20;;;6.70;;
64060;SDS011;60147;55.036;73.242;2024-03-02T14:37:17;15.27;;;4.68;;
64060;SDS011;60147;55.036;73.242;2024-03-02T14:39:43;24.50;;;8.15;;
64060;SDS011;60147;55.036;73.242;2024-03-02T14:42:09;17.08;;;5.53;;
64060;SDS011;60147;55.036;73.242;2024-03-02T14:44:36;12.75;;;5.55;;